Time;durP1;ratioP1;P1;durP2;ratioP2;P2;SDS_P1;SDS_P2;PMS_P1;PMS_P2;Temp;Humidity;BMP_temperature;BMP_pressure;BME280_temperature;BME280_humidity;BME280_pressure;Samples;Min_cycle;Max_cycle;Signal;HPM_P1;HPM_P2
2023/03/15 05:04:23;;;;;;;1.50;1.40;;;1.10;99.90;;;;;;5809021;23;20665;-66
2023/03/15 05:06:49;;;;;;;1.83;1.60;;;1.10;99.90;;;;;;4974694;28;20260;-66
2023/03/15 05:09:17;;;;;;;1.73;1.63;;;1.10;99.90;;;;;;4974459;28;20527;-66
2023/03/15 05:11:45;;;;;;;1.77;1.63;;;1.20;99.90;;;;;;4974718;28;20809;-65
2023/03/15 05:14:10;;;;;;;1.88;1.77;;;1.10;99.90;;;;;;4973631;28;20283;-66
2023/03/15 05:16:36;;;;;;;2.97;1.63;;;1.10;99.90;;;;;;4974085;28;20219;-65
2023/03/15 05:19:02;;;;;;;2.40;1.90;;;1.10;99.90;;;;;;4974990;28;20450;-65
2023/03/15 05:21:28;;;;;;;1.60;1.50;;;1.10;99.90;;;;;;4974526;28;20164;-67
2023/03/15 05:23:53;;;;;;;1.90;1.67;;;1.10;99.90;;;;;;4973623;28;20192;-66
2023/03/15 05:26:19;;;;;;;1.83;1.70;;;1.00;99.90;;;;;;4973115;28;20179;-65
2023/03/15 05:28:44;;;;;;;2.10;2.00;;;1.00;99.90;;;;;;4972949;28;20184;-65
2023/03/15 05:31:10;;;;;;;2.30;2.10;;;1.00;99.90;;;;;;4974717;28;20676;-65
2023/03/15 05:33:36;;;;;;;5.45;2.15;;;1.00;99.90;;;;;;4973404;28;20494;-66
2023/03/15 05:36:02;;;;;;;1.60;1.50;;;1.00;99.90;;;;;;4973870;28;20180;-66
2023/03/15 05:38:27;;;;;;;3.55;2.55;;;1.00;99.90;;;;;;4974366;28;20201;-66
2023/03/15 05:40:53;;;;;;;1.57;1.50;;;1.00;99.90;;;;;;4974116;28;20172;-66
2023/03/15 05:43:19;;;;;;;4.50;2.17;;;1.10;99.90;;;;;;4973742;28;20183;-66
2023/03/15 05:45:46;;;;;;;2.85;1.88;;;1.20;99.90;;;;;;4974431;28;20195;-66
2023/03/15 05:48:11;;;;;;;1.80;1.70;;;1.20;99.90;;;;;;4972848;28;20180;-66
2023/03/15 05:50:37;;;;;;;1.23;1.13;;;1.20;99.90;;;;;;4973181;28;20557;-66
2023/03/15 05:53:03;;;;;;;4.70;1.97;;;1.20;99.90;;;;;;4974415;28;20203;-67
2023/03/15 05:55:28;;;;;;;1.43;1.33;;;1.30;99.90;;;;;;4974043;28;20275;-67
2023/03/15 05:57:54;;;;;;;2.73;1.60;;;1.40;99.90;;;;;;4977738;28;20196;-67
2023/03/15 06:00:20;;;;;;;1.70;1.60;;;1.50;99.90;;;;;;4977987;28;20227;-66
2023/03/15 06:02:45;;;;;;;2.57;2.37;;;1.70;99.90;;;;;;4978470;28;20238;-66
2023/03/15 06:05:11;;;;;;;2.07;1.87;;;1.90;99.90;;;;;;4975436;28;20442;-66
2023/03/15 06:07:37;;;;;;;4.13;2.93;;;2.20;99.90;;;;;;4973146;28;20484;-66
2023/03/15 06:10:03;;;;;;;5.87;2.63;;;2.50;99.90;;;;;;4978104;28;20176;-67
2023/03/15 06:12:28;;;;;;;2.53;2.33;;;2.70;99.90;;;;;;4977283;28;20419;-67
2023/03/15 06:14:54;;;;;;;2.17;2.03;;;2.90;99.90;;;;;;4975834;28;20243;-66
2023/03/15 06:17:20;;;;;;;2.83;2.47;;;3.10;99.90;;;;;;4977665;28;20758;-67
2023/03/15 06:19:45;;;;;;;3.30;3.00;;;3.30;99.90;;;;;;4977813;28;20247;-66
2023/03/15 06:22:11;;;;;;;4.80;2.73;;;3.60;99.90;;;;;;4977189;28;20259;-66
2023/03/15 06:24:36;;;;;;;4.60;3.10;;;3.90;99.90;;;;;;4976959;28;20265;-63
2023/03/15 06:27:02;;;;;;;7.50;2.83;;;4.30;99.90;;;;;;4974368;28;20184;-67
2023/03/15 06:29:28;;;;;;;3.23;2.93;;;4.60;99.90;;;;;;4957971;28;20183;-67
2023/03/15 06:31:53;;;;;;;4.67;2.77;;;5.10;99.90;;;;;;4971164;28;20591;-66
2023/03/15 06:34:20;;;;;;;2.57;2.27;;;5.50;99.90;;;;;;4976767;28;20192;-68
2023/03/15 06:36:46;;;;;;;2.83;2.42;;;6.10;99.90;;;;;;4976848;28;20168;-65
2023/03/15 06:39:12;;;;;;;8.70;2.45;;;6.60;99.90;;;;;;4977116;28;20547;-67
2023/03/15 06:41:40;;;;;;;8.27;4.80;;;7.00;99.90;;;;;;4972991;28;20179;-65
2023/03/15 06:44:06;;;;;;;1.98;1.83;;;7.40;99.90;;;;;;4976318;28;20451;-66
2023/03/15 06:46:32;;;;;;;4.07;1.90;;;7.70;99.90;;;;;;4977188;28;20586;-65
2023/03/15 06:48:57;;;;;;;1.33;1.20;;;7.90;99.90;;;;;;4971196;28;20666;-66
2023/03/15 06:51:23;;;;;;;4.07;1.80;;;8.30;99.90;;;;;;4970881;28;20177;-65
2023/03/15 06:53:49;;;;;;;1.60;1.50;;;8.60;99.90;;;;;;4976772;28;20258;-65
2023/03/15 06:56:14;;;;;;;3.93;1.20;;;8.80;99.90;;;;;;4977226;28;20178;-66
2023/03/15 06:58:40;;;;;;;1.83;1.30;;;9.00;99.30;;;;;;4975246;28;20193;-67
2023/03/15 07:01:06;;;;;;;1.60;1.37;;;9.00;97.00;;;;;;4974791;28;20184;-66
2023/03/15 07:03:31;;;;;;;1.30;1.20;;;8.90;96.50;;;;;;4975055;28;20280;-67
2023/03/15 07:05:57;;;;;;;2.23;1.87;;;8.70;96.30;;;;;;4962337;28;20218;-67
2023/03/15 07:08:24;;;;;;;1.67;1.30;;;8.60;96.40;;;;;;4974965;28;20220;-66
2023/03/15 07:10:50;;;;;;;1.95;1.15;;;8.50;96.10;;;;;;4974895;28;20180;-66
2023/03/15 07:13:17;;;;;;;4.57;1.30;;;8.40;96.20;;;;;;4975989;28;20188;-66
2023/03/15 07:15:43;;;;;;;2.33;0.90;;;8.60;96.90;;;;;;4976129;28;20209;-67
2023/03/15 07:18:08;;;;;;;3.80;0.90;;;8.80;95.90;;;;;;4976189;28;20461;-67
2023/03/15 07:20:34;;;;;;;2.50;1.60;;;9.20;95.60;;;;;;4976313;28;20510;-67
2023/03/15 07:23:00;;;;;;;3.30;1.60;;;9.40;95.20;;;;;;4975928;28;20635;-67
2023/03/15 07:25:26;;;;;;;2.00;1.50;;;9.70;94.40;;;;;;4975920;28;20484;-69
2023/03/15 07:27:52;;;;;;;2.27;1.70;;;10.00;93.50;;;;;;4975562;28;20222;-66
2023/03/15 07:30:19;;;;;;;1.73;1.63;;;10.40;92.40;;;;;;4975217;28;20175;-66
2023/03/15 07:32:45;;;;;;;4.20;2.73;;;10.80;91.80;;;;;;4976326;28;20411;-68
2023/03/15 07:35:11;;;;;;;4.63;1.47;;;11.30;91.60;;;;;;4976045;28;20432;-66
2023/03/15 07:37:36;;;;;;;4.23;1.53;;;11.80;90.70;;;;;;4969075;28;20203;-67
2023/03/15 07:40:05;;;;;;;1.63;1.07;;;12.40;88.30;;;;;;4958179;28;20419;-68
2023/03/15 07:42:30;;;;;;;3.20;1.90;;;12.80;87.40;;;;;;4956897;28;20196;-68
2023/03/15 07:44:56;;;;;;;1.90;1.13;;;13.00;87.00;;;;;;4955229;28;20531;-67
2023/03/15 07:47:22;;;;;;;5.80;1.73;;;13.50;84.00;;;;;;4956607;28;20176;-68
2023/03/15 07:49:47;;;;;;;1.77;1.50;;;13.90;83.00;;;;;;4962703;28;20192;-68
2023/03/15 07:52:13;;;;;;;3.30;1.60;;;14.30;80.90;;;;;;4975995;28;20182;-67
2023/03/15 07:54:38;;;;;;;3.70;1.30;;;14.50;79.40;;;;;;4975070;28;20197;-68
2023/03/15 07:57:04;;;;;;;1.27;1.17;;;14.50;79.20;;;;;;4975695;28;20179;-67
2023/03/15 07:59:30;;;;;;;1.33;1.20;;;14.60;78.30;;;;;;4975547;28;20227;-68
2023/03/15 08:01:55;;;;;;;3.50;1.00;;;14.50;75.60;;;;;;4974385;28;20183;-68
2023/03/15 08:04:21;;;;;;;1.97;1.60;;;14.30;77.20;;;;;;4973807;28;20246;-68
2023/03/15 08:06:47;;;;;;;1.17;1.07;;;14.30;77.30;;;;;;4975424;28;20606;-68
2023/03/15 08:09:13;;;;;;;2.10;1.13;;;13.90;75.30;;;;;;4975455;28;20511;-68
2023/03/15 08:11:38;;;;;;;2.40;1.27;;;13.50;77.30;;;;;;4975643;28;20172;-68
2023/03/15 08:14:04;;;;;;;1.30;0.90;;;13.70;79.40;;;;;;4974800;28;20339;-67
2023/03/15 08:16:30;;;;;;;1.10;1.00;;;14.00;76.50;;;;;;4970976;28;20184;-67
2023/03/15 08:18:55;;;;;;;1.50;1.20;;;14.30;75.60;;;;;;4972980;28;20478;-67
2023/03/15 08:21:21;;;;;;;4.97;1.57;;;14.50;75.10;;;;;;4975630;28;20172;-66
2023/03/15 08:23:47;;;;;;;1.83;1.17;;;14.90;74.80;;;;;;4975205;28;20172;-67
2023/03/15 08:26:12;;;;;;;3.37;1.30;;;15.40;73.80;;;;;;4960280;28;20183;-67
2023/03/15 08:28:38;;;;;;;1.37;1.27;;;15.60;72.00;;;;;;4956171;28;20181;-67
2023/03/15 08:31:08;;;;;;;1.77;1.17;;;15.90;72.20;;;;;;4956350;28;20230;-67
2023/03/15 08:33:33;;;;;;;3.80;1.20;;;16.30;71.80;;;;;;4962931;28;20247;-68
2023/03/15 08:35:59;;;;;;;2.00;1.20;;;16.40;69.50;;;;;;4975434;28;20407;-66
2023/03/15 08:38:25;;;;;;;1.13;1.13;;;16.00;68.70;;;;;;4962272;28;20212;-68
2023/03/15 08:40:57;;;;;;;1.23;1.23;;;15.60;70.80;;;;;;4973001;28;20763;-68
2023/03/15 08:43:23;;;;;;;1.70;1.27;;;15.40;70.10;;;;;;4973370;28;20465;-65
2023/03/15 08:45:49;;;;;;;4.93;1.70;;;15.00;71.00;;;;;;4974757;28;20458;-67
2023/03/15 08:48:15;;;;;;;1.40;1.23;;;14.30;72.50;;;;;;4974630;28;20187;-67
2023/03/15 08:50:41;;;;;;;1.27;1.17;;;14.00;74.80;;;;;;4975002;28;20435;-68
2023/03/15 08:53:07;;;;;;;1.30;1.10;;;14.50;76.60;;;;;;4973952;28;20437;-67
2023/03/15 08:55:33;;;;;;;1.67;1.10;;;15.40;73.70;;;;;;4971514;28;20222;-68
2023/03/15 08:58:00;;;;;;;1.07;0.83;;;15.70;71.90;;;;;;4974868;28;20459;-68
2023/03/15 09:00:27;;;;;;;2.00;1.10;;;15.90;69.80;;;;;;4974574;28;20506;-68
2023/03/15 09:02:53;;;;;;;1.47;1.20;;;15.10;70.40;;;;;;4973423;28;20423;-68
2023/03/15 09:05:20;;;;;;;1.00;1.00;;;14.20;72.10;;;;;;4974079;28;20961;-67
2023/03/15 09:07:47;;;;;;;2.53;1.10;;;13.30;73.60;;;;;;4972987;28;20434;-66
2023/03/15 09:10:14;;;;;;;4.57;1.57;;;13.00;76.20;;;;;;4963471;28;20431;-67
2023/03/15 09:12:45;;;;;;;1.37;1.00;;;13.40;77.20;;;;;;4961335;28;20778;-68
2023/03/15 09:15:11;;;;;;;1.20;0.97;;;14.20;75.70;;;;;;4974229;28;20520;-68
2023/03/15 09:17:38;;;;;;;1.33;1.20;;;14.90;74.40;;;;;;4973760;28;20479;-69
2023/03/15 09:20:13;;;;;;;2.50;1.23;;;15.10;71.70;;;;;;4973822;28;20519;-67
2023/03/15 09:22:42;;;;;;;1.87;1.00;;;15.10;70.70;;;;;;4973899;28;20419;-67
2023/03/15 09:25:08;;;;;;;1.83;1.40;;;14.90;71.30;;;;;;4972404;28;20452;-67
2023/03/15 09:27:34;;;;;;;1.20;1.00;;;14.90;72.10;;;;;;4974002;28;20467;-67
2023/03/15 09:30:00;;;;;;;1.93;1.07;;;15.30;71.80;;;;;;4973874;28;20438;-68
2023/03/15 09:32:25;;;;;;;2.43;1.20;;;15.50;70.60;;;;;;4972916;28;20439;-68
2023/03/15 09:34:51;;;;;;;1.10;1.00;;;15.50;67.30;;;;;;4973350;28;20613;-68
2023/03/15 09:37:17;;;;;;;2.30;1.30;;;15.50;67.40;;;;;;4974168;28;20176;-68
2023/03/15 09:39:43;;;;;;;1.63;1.10;;;15.80;67.20;;;;;;4968692;28;20531;-68
2023/03/15 09:42:26;;;;;;;1.60;1.10;;;16.20;67.30;;;;;;4966890;28;20412;-67
2023/03/15 09:45:20;;;;;;;1.33;1.10;;;16.70;66.70;;;;;;4960418;28;20248;-66
2023/03/15 09:47:59;;;;;;;1.90;1.27;;;16.60;65.50;;;;;;4953852;28;20731;-67
2023/03/15 09:50:30;;;;;;;0.80;0.80;;;15.90;63.70;;;;;;4973693;28;21014;-67
2023/03/15 09:53:10;;;;;;;2.90;1.37;;;15.10;65.00;;;;;;4973523;28;20406;-67
2023/03/15 09:55:36;;;;;;;1.30;1.20;;;14.50;67.00;;;;;;4972601;28;20523;-67
2023/03/15 09:58:03;;;;;;;4.97;1.37;;;14.10;68.30;;;;;;4973623;28;20554;-67
2023/03/15 10:00:34;;;;;;;2.10;1.00;;;13.70;68.50;;;;;;4970825;28;20176;-67
2023/03/15 10:03:05;;;;;;;1.10;1.00;;;13.10;70.30;;;;;;4973207;28;20773;-67
2023/03/15 10:05:36;;;;;;;1.20;1.10;;;12.60;71.60;;;;;;4973664;28;20459;-67
2023/03/15 10:08:07;;;;;;;1.23;1.03;;;12.30;72.60;;;;;;4973572;28;20478;-67
2023/03/15 10:10:37;;;;;;;3.00;1.67;;;12.00;72.50;;;;;;4971249;28;20419;-66
2023/03/15 10:13:35;;;;;;;1.57;1.30;;;11.40;74.70;;;;;;4973419;28;20842;-66
2023/03/15 10:16:16;;;;;;;1.27;1.27;;;10.90;74.40;;;;;;4951672;28;20438;-66
2023/03/15 10:18:53;;;;;;;2.50;1.00;;;10.50;75.00;;;;;;4973166;28;20457;-66
2023/03/15 10:21:43;;;;;;;1.63;1.07;;;10.10;75.70;;;;;;4967945;28;20430;-66
2023/03/15 10:24:53;;;;;;;0.97;0.97;;;10.00;76.80;;;;;;4972826;28;20446;-67
2023/03/15 10:27:32;;;;;;;1.40;0.87;;;10.00;75.50;;;;;;4933170;29;20419;-66
2023/03/15 10:29:59;;;;;;;0.90;0.90;;;10.00;75.80;;;;;;4966071;28;20476;-66
2023/03/15 10:32:34;;;;;;;1.97;1.30;;;10.10;75.80;;;;;;4966374;28;20749;-66
2023/03/15 10:35:00;;;;;;;1.37;0.90;;;10.20;76.70;;;;;;4972658;28;20804;-67
2023/03/15 10:37:26;;;;;;;4.03;1.03;;;10.30;77.80;;;;;;4973349;28;20430;-66
2023/03/15 10:39:57;;;;;;;1.43;1.20;;;10.50;77.30;;;;;;4958414;28;20541;-66
2023/03/15 10:42:31;;;;;;;1.20;1.10;;;10.50;77.50;;;;;;4954957;28;20176;-66
2023/03/15 10:44:59;;;;;;;1.07;1.00;;;10.40;79.50;;;;;;4976142;28;20440;-66
2023/03/15 10:47:26;;;;;;;1.07;0.90;;;10.50;78.80;;;;;;4977013;28;20480;-66
2023/03/15 10:49:58;;;;;;;1.80;1.20;;;10.60;78.80;;;;;;4976388;28;20530;-67
2023/03/15 10:52:37;;;;;;;5.60;1.00;;;10.80;77.60;;;;;;4977409;28;20426;-67
2023/03/15 10:55:10;;;;;;;0.70;0.70;;;11.00;77.90;;;;;;4976116;28;20836;-67
2023/03/15 10:57:39;;;;;;;1.20;1.20;;;11.30;78.50;;;;;;4976278;28;20487;-67
2023/03/15 11:00:18;;;;;;;1.07;0.93;;;11.80;78.20;;;;;;4976297;28;20506;-66
2023/03/15 11:03:00;;;;;;;3.33;0.73;;;12.30;77.70;;;;;;4976491;28;20429;-67
2023/03/15 11:05:30;;;;;;;1.20;0.77;;;12.60;76.80;;;;;;4976648;28;20453;-67
2023/03/15 11:07:59;;;;;;;1.23;1.13;;;12.90;76.10;;;;;;4976516;28;20419;-68
2023/03/15 11:10:28;;;;;;;1.23;1.00;;;13.10;76.50;;;;;;4976131;28;20419;-65
2023/03/15 11:13:17;;;;;;;1.03;0.87;;;13.20;75.40;;;;;;4964066;28;20889;-65
2023/03/15 11:16:05;;;;;;;1.90;1.73;;;12.90;72.70;;;;;;4975712;28;20443;-67
2023/03/15 11:18:45;;;;;;;3.93;0.90;;;12.40;75.30;;;;;;4976533;28;20459;-66
2023/03/15 11:21:14;;;;;;;0.90;0.90;;;11.90;74.70;;;;;;4975980;28;20422;-66
2023/03/15 11:23:46;;;;;;;3.63;1.57;;;11.60;73.80;;;;;;4975249;28;20754;-66
2023/03/15 11:26:21;;;;;;;2.13;2.03;;;11.20;76.00;;;;;;4976192;28;20449;-66
2023/03/15 11:29:14;;;;;;;3.27;1.37;;;10.80;75.80;;;;;;4975283;28;20434;-66
2023/03/15 11:31:40;;;;;;;2.03;1.00;;;10.40;78.60;;;;;;4976380;28;20425;-65
2023/03/15 11:34:08;;;;;;;0.80;0.80;;;10.10;79.40;;;;;;4975830;28;20777;-65
2023/03/15 11:36:38;;;;;;;0.73;0.73;;;9.90;82.90;;;;;;4975190;28;20185;-66
2023/03/15 11:39:05;;;;;;;0.90;0.90;;;9.90;82.70;;;;;;4976381;28;20825;-66
2023/03/15 11:41:50;;;;;;;1.63;0.67;;;9.80;83.20;;;;;;4975103;28;20434;-65
2023/03/15 11:44:22;;;;;;;0.90;0.90;;;9.80;83.80;;;;;;4961887;28;20523;-65
2023/03/15 11:46:52;;;;;;;1.95;1.08;;;9.70;84.60;;;;;;4975974;28;20547;-66
2023/03/15 11:49:36;;;;;;;1.58;1.05;;;9.70;85.10;;;;;;4974541;28;20187;-66
2023/03/15 11:52:03;;;;;;;1.20;0.70;;;9.60;86.40;;;;;;4975873;28;20207;-66
2023/03/15 11:54:31;;;;;;;1.30;0.77;;;9.60;86.20;;;;;;4970217;28;20208;-66
2023/03/15 11:57:42;;;;;;;3.47;1.63;;;9.60;85.80;;;;;;4963944;28;20180;-65
2023/03/15 12:00:33;;;;;;;1.00;0.80;;;9.60;85.80;;;;;;4959469;28;20343;-64
2023/03/15 12:03:24;;;;;;;0.70;0.60;;;9.60;85.80;;;;;;4974256;28;20219;-66
2023/03/15 12:06:35;;;;;;;0.82;0.60;;;9.50;86.60;;;;;;4975566;28;20214;-65
2023/03/15 12:09:21;;;;;;;0.70;0.63;;;9.50;84.80;;;;;;4924535;29;20185;-65
2023/03/15 12:11:47;;;;;;;0.70;0.70;;;9.40;83.90;;;;;;4975281;28;20176;-64
2023/03/15 12:14:35;;;;;;;0.67;0.67;;;9.20;84.50;;;;;;4974768;28;20200;-64
2023/03/15 12:17:23;;;;;;;1.95;0.90;;;9.10;84.40;;;;;;4969936;28;20543;-64
2023/03/15 12:20:07;;;;;;;0.70;0.70;;;9.20;86.40;;;;;;4974581;28;20188;-66
2023/03/15 12:22:34;;;;;;;0.80;0.68;;;9.10;86.30;;;;;;4976636;28;20176;-65
2023/03/15 12:25:14;;;;;;;0.63;0.63;;;9.10;86.90;;;;;;4975363;28;20225;-66
2023/03/15 12:27:50;;;;;;;1.08;0.70;;;9.10;87.20;;;;;;4971870;28;20196;-65
2023/03/15 12:30:21;;;;;;;1.30;0.95;;;9.10;88.30;;;;;;4965136;28;20172;-66
2023/03/15 12:32:52;;;;;;;1.35;1.05;;;9.10;89.30;;;;;;4974749;28;20184;-67
2023/03/15 12:35:20;;;;;;;1.65;0.95;;;9.20;89.80;;;;;;4975566;28;20642;-67
2023/03/15 12:37:49;;;;;;;1.08;1.08;;;9.30;90.40;;;;;;4974947;28;20203;-66
2023/03/15 12:40:15;;;;;;;0.60;0.60;;;9.30;90.90;;;;;;4975123;28;20256;-66
2023/03/15 12:42:41;;;;;;;5.20;1.50;;;9.30;90.30;;;;;;4974457;28;20252;-66
2023/03/15 12:45:18;;;;;;;0.70;0.70;;;9.30;89.50;;;;;;4973937;28;20221;-67
2023/03/15 12:47:49;;;;;;;0.98;0.98;;;9.30;89.80;;;;;;4973887;28;20210;-66
2023/03/15 12:50:33;;;;;;;1.30;0.80;;;9.20;89.90;;;;;;4974747;28;20177;-67
2023/03/15 12:53:01;;;;;;;0.95;0.85;;;9.00;89.80;;;;;;4970878;28;20571;-65
2023/03/15 12:55:30;;;;;;;1.52;1.42;;;8.70;92.90;;;;;;4971432;28;20559;-64
2023/03/15 12:57:58;;;;;;;2.38;1.10;;;8.40;95.20;;;;;;4964299;28;20658;-64
2023/03/15 13:00:29;;;;;;;1.08;1.08;;;8.00;97.10;;;;;;4970836;28;20172;-65
2023/03/15 13:03:01;;;;;;;1.55;1.35;;;7.70;98.80;;;;;;4974208;28;20172;-66
2023/03/15 13:05:35;;;;;;;1.10;1.10;;;7.50;99.90;;;;;;4973905;28;20296;-65
2023/03/15 13:08:07;;;;;;;2.25;1.38;;;7.40;99.90;;;;;;4975011;28;20176;-64
2023/03/15 13:11:10;;;;;;;0.85;0.85;;;7.30;99.90;;;;;;4974519;28;20172;-64
2023/03/15 13:13:45;;;;;;;1.15;1.08;;;7.40;99.90;;;;;;4974049;28;20175;-64
2023/03/15 13:16:35;;;;;;;1.13;0.98;;;7.40;99.90;;;;;;4974777;28;20193;-64
2023/03/15 13:19:17;;;;;;;1.50;1.40;;;7.30;99.90;;;;;;4974309;28;20207;-64
2023/03/15 13:22:06;;;;;;;1.95;1.35;;;7.10;99.90;;;;;;4974667;28;20179;-65
2023/03/15 13:24:38;;;;;;;3.10;1.42;;;7.00;99.90;;;;;;4974334;28;20211;-65
2023/03/15 13:27:24;;;;;;;1.00;1.00;;;7.00;99.90;;;;;;4974538;28;20231;-67
2023/03/15 13:29:50;;;;;;;1.10;1.10;;;7.00;99.90;;;;;;4974456;28;20172;-67
2023/03/15 13:32:20;;;;;;;1.00;0.90;;;7.00;99.90;;;;;;4974681;28;20175;-65
2023/03/15 13:34:46;;;;;;;0.90;0.90;;;7.10;99.90;;;;;;4974114;28;20191;-66
2023/03/15 13:37:21;;;;;;;1.00;1.00;;;7.20;99.90;;;;;;4974512;28;20179;-67
2023/03/15 13:40:14;;;;;;;2.28;2.08;;;7.40;99.90;;;;;;4974631;28;20532;-65
2023/03/15 13:42:40;;;;;;;2.97;1.05;;;7.60;99.90;;;;;;4973175;28;20191;-65
2023/03/15 13:45:11;;;;;;;1.03;0.80;;;7.60;99.90;;;;;;4973301;28;20554;-66
2023/03/15 13:47:40;;;;;;;0.88;0.88;;;7.70;99.90;;;;;;4972887;28;20654;-65
2023/03/15 13:50:07;;;;;;;1.17;1.08;;;7.70;99.90;;;;;;4974304;28;20186;-66
2023/03/15 13:52:33;;;;;;;1.35;0.88;;;7.80;99.90;;;;;;4967688;28;20216;-65
2023/03/15 13:54:59;;;;;;;0.80;0.80;;;7.90;99.90;;;;;;4954759;28;20667;-65
2023/03/15 13:57:25;;;;;;;4.32;1.35;;;7.80;99.90;;;;;;4958541;28;20722;-66
2023/03/15 14:00:09;;;;;;;0.70;0.70;;;7.90;99.90;;;;;;4968571;28;20188;-66
2023/03/15 14:02:37;;;;;;;1.30;0.98;;;8.00;99.90;;;;;;4974378;28;20164;-66
2023/03/15 14:05:10;;;;;;;0.93;0.85;;;8.00;99.90;;;;;;4969330;28;20668;-66
2023/03/15 14:07:38;;;;;;;1.30;0.90;;;8.00;99.90;;;;;;4974175;28;20231;-65
2023/03/15 14:10:16;;;;;;;1.17;1.08;;;7.90;99.90;;;;;;4973663;28;20526;-67
2023/03/15 14:12:42;;;;;;;2.40;1.00;;;7.80;99.90;;;;;;4973920;28;20243;-64
2023/03/15 14:15:21;;;;;;;1.00;1.00;;;7.80;99.90;;;;;;4973713;28;20275;-64
2023/03/15 14:18:00;;;;;;;1.42;1.13;;;7.60;99.90;;;;;;4976048;28;20198;-64
2023/03/15 14:20:35;;;;;;;2.15;0.70;;;7.50;99.90;;;;;;4977817;28;20234;-65
2023/03/15 14:23:03;;;;;;;1.73;1.00;;;7.40;99.90;;;;;;4977202;28;20182;-65
2023/03/15 14:25:34;;;;;;;1.55;1.23;;;7.50;99.90;;;;;;4977548;28;20250;-65
2023/03/15 14:28:01;;;;;;;1.95;1.42;;;7.50;99.90;;;;;;4977657;28;20258;-65
2023/03/15 14:30:27;;;;;;;0.85;0.85;;;7.50;99.90;;;;;;4977660;28;20180;-66
2023/03/15 14:32:56;;;;;;;3.20;1.20;;;7.60;99.90;;;;;;4977298;28;20207;-65
2023/03/15 14:35:31;;;;;;;0.73;0.73;;;7.70;99.90;;;;;;4977732;28;20562;-66
2023/03/15 14:38:07;;;;;;;0.75;0.75;;;7.90;99.90;;;;;;4977274;28;20192;-66
2023/03/15 14:40:37;;;;;;;1.10;1.10;;;8.00;99.90;;;;;;4977244;28;20195;-66
2023/03/15 14:43:04;;;;;;;1.13;1.00;;;7.90;99.90;;;;;;4977197;28;20191;-65
2023/03/15 14:45:31;;;;;;;1.38;1.15;;;7.90;99.90;;;;;;4977256;28;20187;-65
2023/03/15 14:48:02;;;;;;;4.10;1.98;;;7.90;99.90;;;;;;4977413;28;20597;-64
2023/03/15 14:50:33;;;;;;;0.77;0.77;;;7.90;99.90;;;;;;4977457;28;20176;-65
2023/03/15 14:52:59;;;;;;;3.90;1.27;;;7.80;99.90;;;;;;4976417;28;20520;-65
2023/03/15 14:55:29;;;;;;;1.67;1.57;;;7.80;99.90;;;;;;4975722;28;20257;-65
2023/03/15 14:57:56;;;;;;;0.73;0.70;;;7.80;99.90;;;;;;4977198;28;20219;-66
2023/03/15 15:00:22;;;;;;;1.00;1.00;;;7.80;99.90;;;;;;4976216;28;20754;-66
2023/03/15 15:02:50;;;;;;;0.70;0.70;;;7.80;99.90;;;;;;4972387;28;20272;-67
2023/03/15 15:05:34;;;;;;;0.63;0.63;;;7.50;99.90;;;;;;4957501;28;20290;-66
2023/03/15 15:08:11;;;;;;;0.75;0.75;;;7.20;99.90;;;;;;4961679;28;20677;-69
2023/03/15 15:10:38;;;;;;;0.82;0.82;;;6.80;99.90;;;;;;4971625;28;20233;-69
2023/03/15 15:13:04;;;;;;;1.00;0.90;;;6.60;99.90;;;;;;4964501;28;20238;-69
2023/03/15 15:15:29;;;;;;;2.17;1.43;;;6.40;99.90;;;;;;4972221;28;20203;-69
2023/03/15 15:17:55;;;;;;;0.97;0.97;;;6.20;99.90;;;;;;4971804;28;20207;-69
2023/03/15 15:20:21;;;;;;;0.77;0.70;;;6.20;99.90;;;;;;4975841;28;20188;-68
2023/03/15 15:22:48;;;;;;;1.45;1.35;;;6.10;99.90;;;;;;4976060;28;20175;-69
2023/03/15 15:25:19;;;;;;;1.10;1.10;;;6.10;99.90;;;;;;4974435;28;20208;-70
2023/03/15 15:27:45;;;;;;;0.75;0.75;;;6.10;99.90;;;;;;4976195;28;20257;-66
2023/03/15 15:30:23;;;;;;;1.02;1.02;;;6.10;99.90;;;;;;4975952;28;20174;-68
2023/03/15 15:32:50;;;;;;;0.90;0.90;;;6.00;99.90;;;;;;4976468;28;20237;-67
2023/03/15 15:35:18;;;;;;;1.10;1.10;;;6.10;99.90;;;;;;4958579;28;20300;-69
2023/03/15 15:37:45;;;;;;;1.20;1.20;;;6.10;99.90;;;;;;4975249;28;20202;-69
2023/03/15 15:40:19;;;;;;;1.20;1.10;;;6.00;99.90;;;;;;4975599;28;20178;-69
2023/03/15 15:42:46;;;;;;;0.90;0.90;;;6.00;99.90;;;;;;4972247;28;20207;-68
2023/03/15 15:45:16;;;;;;;0.90;0.90;;;5.90;99.90;;;;;;4975764;28;20195;-64
2023/03/15 15:47:41;;;;;;;1.67;1.15;;;5.90;99.90;;;;;;4975789;28;20183;-67
2023/03/15 15:50:11;;;;;;;1.10;1.10;;;5.80;99.90;;;;;;4976198;28;20178;-67
2023/03/15 15:52:39;;;;;;;1.13;1.13;;;5.70;99.90;;;;;;4974732;28;20230;-66
2023/03/15 15:55:27;;;;;;;1.50;1.40;;;5.60;99.90;;;;;;4975608;28;20197;-70
2023/03/15 15:57:53;;;;;;;1.85;1.50;;;5.40;99.90;;;;;;4975672;28;20209;-67
2023/03/15 16:00:24;;;;;;;1.80;1.70;;;5.40;99.90;;;;;;4975863;28;20172;-66
2023/03/15 16:02:54;;;;;;;2.22;2.03;;;5.30;99.90;;;;;;4973403;28;20178;-69
2023/03/15 16:05:31;;;;;;;2.28;2.08;;;5.20;99.90;;;;;;4975329;28;20220;-69
2023/03/15 16:08:00;;;;;;;2.00;1.90;;;5.20;99.90;;;;;;4974738;28;20189;-66
2023/03/15 16:10:29;;;;;;;4.53;2.40;;;5.20;99.90;;;;;;4972771;28;20273;-65
2023/03/15 16:12:56;;;;;;;1.80;1.60;;;5.30;99.90;;;;;;4975284;28;20650;-67
2023/03/15 16:15:22;;;;;;;1.80;1.70;;;5.40;99.90;;;;;;4975817;28;20201;-68
2023/03/15 16:17:48;;;;;;;1.60;1.50;;;5.40;99.90;;;;;;4975416;28;20210;-68
2023/03/15 16:20:15;;;;;;;1.73;1.63;;;5.50;99.90;;;;;;4975676;28;20176;-67
2023/03/15 16:22:46;;;;;;;2.33;2.10;;;5.60;99.90;;;;;;4975464;28;20522;-68
2023/03/15 16:25:23;;;;;;;2.15;2.05;;;5.60;99.90;;;;;;4974362;28;20196;-64
2023/03/15 16:27:51;;;;;;;2.80;1.55;;;5.60;99.90;;;;;;4974160;28;20232;-67
2023/03/15 16:30:25;;;;;;;3.70;1.80;;;5.60;99.90;;;;;;4975410;28;20191;-67
2023/03/15 16:32:54;;;;;;;2.20;2.00;;;5.60;99.90;;;;;;4975325;28;20176;-69
2023/03/15 16:35:26;;;;;;;1.30;1.30;;;5.50;99.90;;;;;;4974121;28;20562;-67
2023/03/15 16:37:55;;;;;;;1.80;1.63;;;5.50;99.90;;;;;;4975068;28;20208;-68
2023/03/15 16:40:31;;;;;;;2.40;2.22;;;5.50;99.90;;;;;;4955978;28;20172;-67
2023/03/15 16:42:57;;;;;;;4.45;2.15;;;5.40;99.90;;;;;;4955425;28;20169;-67
2023/03/15 16:45:23;;;;;;;2.50;2.20;;;5.50;99.90;;;;;;4957505;28;20275;-69
2023/03/15 16:47:49;;;;;;;1.77;1.67;;;5.50;99.90;;;;;;4972456;28;20427;-66
2023/03/15 16:50:15;;;;;;;2.03;1.83;;;5.50;99.90;;;;;;4973949;28;20180;-70
2023/03/15 16:52:42;;;;;;;3.00;2.37;;;5.50;99.90;;;;;;4975214;28;20191;-69
2023/03/15 16:55:18;;;;;;;1.70;1.60;;;5.50;99.90;;;;;;4973505;28;20469;-69
2023/03/15 16:57:44;;;;;;;2.85;2.65;;;5.50;99.90;;;;;;4974715;28;20656;-68
2023/03/15 17:00:15;;;;;;;1.40;1.40;;;5.40;99.90;;;;;;4970091;28;20244;-69
2023/03/15 17:02:44;;;;;;;1.70;1.63;;;5.40;99.90;;;;;;4975824;28;20184;-70
2023/03/15 17:05:09;;;;;;;2.13;1.70;;;5.40;99.90;;;;;;4953744;28;20529;-67
2023/03/15 17:07:37;;;;;;;2.80;2.10;;;5.40;99.90;;;;;;4955461;29;20219;-68
2023/03/15 17:10:12;;;;;;;2.95;2.00;;;5.30;99.90;;;;;;4955716;28;20275;-71
2023/03/15 17:12:38;;;;;;;3.25;2.95;;;5.30;99.90;;;;;;4955716;29;20550;-67
2023/03/15 17:15:05;;;;;;;1.70;1.63;;;5.30;99.90;;;;;;4971049;28;20226;-67
2023/03/15 17:17:30;;;;;;;2.08;1.63;;;5.30;99.90;;;;;;4955838;28;20242;-71
2023/03/15 17:19:56;;;;;;;1.77;1.67;;;5.30;99.90;;;;;;4954098;28;20181;-64
2023/03/15 17:22:23;;;;;;;2.23;1.83;;;5.30;99.90;;;;;;4959735;28;20191;-67
2023/03/15 17:24:49;;;;;;;1.88;1.77;;;5.30;99.90;;;;;;4974217;28;20248;-66
2023/03/15 17:27:37;;;;;;;3.47;3.00;;;5.20;99.90;;;;;;4974289;28;20185;-67
2023/03/15 17:30:24;;;;;;;2.97;2.78;;;5.20;99.90;;;;;;4974492;28;20215;-67
2023/03/15 17:32:50;;;;;;;2.30;2.20;;;5.10;99.90;;;;;;4972926;28;20555;-68
2023/03/15 17:35:18;;;;;;;1.95;1.85;;;5.00;99.90;;;;;;4974705;28;20281;-67
2023/03/15 17:37:45;;;;;;;1.67;1.58;;;5.00;99.90;;;;;;4974776;28;20411;-68
2023/03/15 17:40:23;;;;;;;1.98;1.88;;;4.90;99.90;;;;;;4974544;28;20204;-68
2023/03/15 17:42:50;;;;;;;1.65;1.58;;;4.80;99.90;;;;;;4974573;28;20172;-69
2023/03/15 17:45:19;;;;;;;2.58;2.38;;;4.80;99.90;;;;;;4973275;28;20620;-69
2023/03/15 17:47:45;;;;;;;3.70;2.17;;;4.70;99.90;;;;;;4954704;28;20191;-67
2023/03/15 17:50:11;;;;;;;2.00;1.90;;;4.60;99.90;;;;;;4953922;29;20188;-68
2023/03/15 17:52:38;;;;;;;1.77;1.67;;;4.50;99.90;;;;;;4958869;28;20533;-68
2023/03/15 17:55:04;;;;;;;1.25;1.25;;;4.50;99.90;;;;;;4977776;28;20188;-69
2023/03/15 17:57:30;;;;;;;1.90;1.80;;;4.40;99.90;;;;;;4978085;28;20172;-70
2023/03/15 17:59:55;;;;;;;2.30;2.10;;;4.30;99.90;;;;;;4976493;28;20783;-69
2023/03/15 18:02:21;;;;;;;2.70;2.57;;;4.30;99.90;;;;;;4975464;28;20646;-69
2023/03/15 18:04:47;;;;;;;2.77;2.57;;;4.20;99.90;;;;;;4977594;28;20270;-69
2023/03/15 18:07:12;;;;;;;2.10;1.87;;;4.20;99.90;;;;;;4977696;28;20279;-70
2023/03/15 18:09:38;;;;;;;1.80;1.70;;;4.10;99.90;;;;;;4975496;28;20176;-71
2023/03/15 18:12:04;;;;;;;1.77;1.67;;;4.10;99.90;;;;;;4974083;28;20255;-68